createdAt,value
2022-10-06T00:01:08.419Z,79.40
2022-10-06T00:03:38.353Z,79.47
2022-10-06T00:06:07.644Z,79.39
2022-10-06T00:08:38.052Z,79.24
2022-10-06T00:11:07.192Z,79.19
2022-10-06T00:13:35.868Z,78.77
2022-10-06T00:16:09.624Z,78.44
2022-10-06T00:18:36.851Z,78.18
2022-10-06T00:21:04.244Z,77.99
2022-10-06T00:23:33.639Z,77.96
2022-10-06T00:26:00.774Z,77.99
2022-10-06T00:28:28.239Z,77.89
2022-10-06T00:30:56.334Z,77.98
2022-10-06T00:33:24.141Z,77.83
2022-10-06T00:35:58.226Z,77.82
2022-10-06T00:38:27.711Z,78.12
2022-10-06T00:40:55.518Z,78.29
2022-10-06T00:44:00.247Z,78.20
2022-10-06T00:46:52.068Z,78.48
2022-10-06T00:49:27.633Z,78.30
2022-10-06T00:52:11.288Z,78.24
2022-10-06T00:54:39.073Z,78.27
2022-10-06T00:57:07.146Z,77.90
2022-10-06T00:59:37.359Z,77.94
2022-10-06T01:02:13.875Z,77.87
2022-10-06T01:04:48.140Z,77.33
2022-10-06T01:07:20.251Z,77.95
2022-10-06T01:09:49.156Z,77.83
2022-10-06T01:12:17.075Z,77.62
2022-10-06T01:14:44.127Z,77.10
2022-10-06T01:17:19.620Z,77.09
2022-10-06T01:19:52.506Z,77.06
2022-10-06T01:22:43.548Z,76.69
2022-10-06T01:25:14.547Z,76.50
2022-10-06T01:27:50.674Z,76.68
2022-10-06T01:30:26.911Z,76.59
2022-10-06T01:32:56.316Z,76.65
2022-10-06T01:35:23.859Z,76.43
2022-10-06T01:37:51.017Z,76.50
2022-10-06T01:40:19.250Z,76.62
2022-10-06T01:42:46.603Z,76.71
2022-10-06T01:45:13.563Z,76.90
2022-10-06T01:47:41.518Z,76.88
2022-10-06T01:50:10.490Z,76.98
2022-10-06T01:52:37.797Z,77.06
2022-10-06T01:55:06.123Z,77.10
2022-10-06T01:57:41.698Z,76.93
2022-10-06T02:00:11.594Z,76.62
2022-10-06T02:02:43.561Z,76.96
2022-10-06T02:05:12.263Z,76.80
2022-10-06T02:07:44.744Z,76.97
2022-10-06T02:10:15.035Z,76.91
2022-10-06T02:12:42.345Z,76.68
2022-10-06T02:15:13.342Z,76.90
2022-10-06T02:17:40.278Z,76.73
2022-10-06T02:20:07.845Z,76.70
2022-10-06T02:22:43.701Z,76.72
2022-10-06T02:25:12.274Z,76.73
2022-10-06T02:27:40.229Z,76.67
2022-10-06T02:30:14.511Z,76.98
2022-10-06T02:32:44.149Z,76.74
2022-10-06T02:35:13.089Z,76.90
2022-10-06T02:37:42.136Z,76.97
2022-10-06T02:40:11.539Z,77.13
2022-10-06T02:42:38.754Z,77.11
2022-10-06T02:45:09.075Z,77.30
2022-10-06T02:47:38.365Z,77.10
2022-10-06T02:50:08.051Z,76.91
2022-10-06T02:52:38.105Z,77.41
2022-10-06T02:55:07.484Z,77.26
2022-10-06T02:57:34.594Z,77.52
2022-10-06T03:00:02.542Z,77.53
2022-10-06T03:02:34.363Z,77.53
2022-10-06T03:05:01.799Z,77.70
2022-10-06T03:07:28.913Z,77.64
2022-10-06T03:09:56.039Z,77.64
2022-10-06T03:12:25.229Z,77.64
2022-10-06T03:14:52.659Z,77.71
2022-10-06T03:17:20.239Z,77.57
2022-10-06T03:19:54.199Z,77.56
2022-10-06T03:22:21.322Z,77.61
2022-10-06T03:24:55.287Z,77.53
2022-10-06T03:27:22.651Z,77.61
2022-10-06T03:29:51.886Z,77.49
2022-10-06T03:32:22.844Z,77.50
2022-10-06T03:34:53.320Z,77.58
2022-10-06T03:37:20.505Z,77.80
2022-10-06T03:39:47.666Z,77.64
2022-10-06T03:42:14.938Z,77.63
2022-10-06T03:44:42.454Z,77.85
2022-10-06T03:47:14.577Z,77.78
2022-10-06T03:49:43.899Z,77.83
2022-10-06T03:52:10.974Z,77.95
2022-10-06T03:54:38.565Z,78.12
2022-10-06T03:57:05.501Z,78.21
2022-10-06T03:59:34.272Z,78.26
2022-10-06T04:02:03.288Z,78.05
2022-10-06T04:04:35.414Z,78.38
2022-10-06T04:07:07.429Z,78.38
2022-10-06T04:09:34.454Z,78.45
2022-10-06T04:12:02.088Z,78.55
2022-10-06T04:14:30.209Z,78.51
2022-10-06T04:16:57.550Z,78.61
2022-10-06T04:19:30.016Z,78.74
2022-10-06T04:21:58.256Z,78.88
2022-10-06T04:24:26.089Z,78.95
2022-10-06T04:26:53.422Z,79.09
2022-10-06T04:29:21.919Z,79.03
2022-10-06T04:31:54.654Z,79.16
2022-10-06T04:34:26.656Z,79.37
2022-10-06T04:36:54.131Z,79.51
2022-10-06T04:39:28.534Z,79.66
2022-10-06T04:41:55.812Z,79.59
2022-10-06T04:44:27.245Z,79.53
2022-10-06T04:46:56.658Z,79.61
2022-10-06T04:49:24.200Z,80.03
2022-10-06T04:51:53.291Z,80.06
2022-10-06T04:54:21.571Z,80.24
2022-10-06T04:56:53.766Z,80.43
2022-10-06T04:59:44.451Z,80.33
2022-10-06T05:02:13.924Z,80.60
2022-10-06T05:04:42.169Z,81.01
2022-10-06T05:07:10.089Z,81.16
2022-10-06T05:09:37.557Z,81.07
2022-10-06T05:12:30.327Z,81.27
2022-10-06T05:14:59.704Z,81.24
2022-10-06T05:17:27.996Z,81.07
2022-10-06T05:19:55.061Z,80.76
2022-10-06T05:22:23.148Z,80.97
2022-10-06T05:24:53.708Z,80.80
2022-10-06T05:27:21.048Z,80.47
2022-10-06T05:29:51.769Z,80.42
2022-10-06T05:32:18.872Z,80.45
2022-10-06T05:34:45.977Z,80.60
2022-10-06T05:37:13.152Z,80.27
2022-10-06T05:39:40.404Z,80.06
2022-10-06T05:42:07.549Z,79.94
2022-10-06T05:44:34.512Z,80.05
2022-10-06T05:47:06.577Z,80.19
2022-10-06T05:49:34.796Z,80.34
2022-10-06T05:52:06.155Z,80.10
2022-10-06T05:54:37.006Z,80.44
2022-10-06T05:57:05.508Z,80.33
2022-10-06T05:59:34.270Z,80.49
2022-10-06T06:02:03.252Z,80.41
2022-10-06T06:04:38.346Z,80.60
2022-10-06T06:07:05.953Z,80.53
2022-10-06T06:09:33.535Z,80.38
2022-10-06T06:12:02.745Z,80.69
2022-10-06T06:14:54.993Z,80.54
2022-10-06T06:17:25.781Z,80.54
2022-10-06T06:19:52.784Z,80.56
2022-10-06T06:22:19.832Z,80.46
2022-10-06T06:24:49.482Z,80.66
2022-10-06T06:27:17.243Z,80.44
2022-10-06T06:29:45.789Z,80.28
2022-10-06T06:32:15.092Z,80.23
2022-10-06T06:34:42.140Z,80.17
2022-10-06T06:37:15.043Z,80.21
2022-10-06T06:39:42.853Z,80.36
2022-10-06T06:42:10.129Z,80.14
2022-10-06T06:44:57.193Z,80.21
2022-10-06T06:47:40.633Z,80.08
2022-10-06T06:50:10.410Z,79.73
2022-10-06T06:52:39.394Z,79.58
2022-10-06T06:55:09.332Z,79.50
2022-10-06T06:57:36.752Z,79.32
2022-10-06T07:00:08.108Z,79.34
2022-10-06T07:02:37.063Z,79.23
2022-10-06T07:05:05.209Z,79.08
2022-10-06T07:07:32.432Z,79.04
2022-10-06T07:10:00.107Z,78.95
2022-10-06T07:12:27.347Z,78.63
2022-10-06T07:15:17.243Z,78.39
2022-10-06T07:18:10.150Z,78.27
2022-10-06T07:20:56.184Z,77.91
2022-10-06T07:23:43.155Z,77.77
2022-10-06T07:26:17.366Z,77.74
2022-10-06T07:28:45.342Z,77.47
2022-10-06T07:31:19.139Z,77.17
2022-10-06T07:33:47.456Z,76.94
2022-10-06T07:36:16.150Z,76.91
2022-10-06T07:38:43.664Z,76.51
2022-10-06T07:41:25.943Z,76.53
2022-10-06T07:43:56.121Z,76.22
2022-10-06T07:46:24.823Z,76.26
2022-10-06T07:48:58.065Z,75.96
2022-10-06T07:51:27.265Z,75.83
2022-10-06T07:53:56.043Z,75.58
2022-10-06T07:56:28.278Z,75.46
2022-10-06T07:58:58.625Z,75.19
2022-10-06T08:01:27.387Z,74.96
2022-10-06T08:03:54.584Z,74.62
2022-10-06T08:06:24.456Z,73.47
2022-10-06T08:08:53.407Z,73.22
2022-10-06T08:11:21.619Z,73.29
2022-10-06T08:13:49.152Z,72.45
2022-10-06T08:16:23.697Z,72.49
2022-10-06T08:18:54.987Z,72.35
2022-10-06T08:21:34.294Z,72.60
2022-10-06T08:24:04.635Z,72.45
2022-10-06T08:26:33.178Z,71.64
2022-10-06T08:29:03.150Z,71.25
2022-10-06T08:31:31.875Z,70.84
2022-10-06T08:33:59.072Z,70.90
2022-10-06T08:36:31.567Z,71.01
2022-10-06T08:39:00.956Z,70.01
2022-10-06T08:41:48.504Z,70.18
2022-10-06T08:44:21.181Z,69.97
2022-10-06T08:47:05.613Z,68.22
2022-10-06T08:49:44.758Z,67.50
2022-10-06T08:52:41.250Z,66.94
2022-10-06T08:55:23.317Z,68.25
2022-10-06T08:58:38.192Z,67.27
2022-10-06T09:01:18.778Z,67.95
2022-10-06T09:03:49.044Z,67.91
2022-10-06T09:06:40.961Z,66.53
2022-10-06T09:09:57.698Z,65.33
2022-10-06T09:12:51.978Z,65.95
2022-10-06T09:15:39.063Z,65.44
2022-10-06T09:18:19.847Z,65.93
2022-10-06T09:21:01.465Z,65.53
2022-10-06T09:23:47.904Z,64.83
2022-10-06T09:26:46.496Z,64.97
2022-10-06T09:29:14.703Z,64.01
2022-10-06T09:31:50.388Z,63.42
2022-10-06T09:34:38.079Z,61.65
2022-10-06T09:37:13.067Z,61.43
2022-10-06T09:39:45.095Z,61.62
2022-10-06T09:42:20.343Z,62.02
2022-10-06T09:44:51.005Z,62.35
2022-10-06T09:47:33.055Z,62.29
2022-10-06T09:50:12.343Z,62.60
2022-10-06T09:52:41.679Z,60.59
2022-10-06T09:55:17.818Z,58.50
2022-10-06T09:57:52.446Z,57.92
2022-10-06T10:00:36.810Z,58.93
2022-10-06T10:03:09.290Z,59.00
2022-10-06T10:05:45.783Z,59.11
2022-10-06T10:08:27.839Z,58.26
2022-10-06T10:11:38.980Z,59.03
2022-10-06T10:14:20.315Z,57.95
2022-10-06T10:16:53.082Z,57.92
2022-10-06T10:19:37.124Z,58.29
2022-10-06T10:22:04.286Z,57.49
2022-10-06T10:24:53.584Z,56.61
2022-10-06T10:27:59.535Z,56.58
2022-10-06T10:30:28.538Z,57.66
2022-10-06T10:33:15.591Z,57.82
2022-10-06T10:35:52.302Z,57.25
2022-10-06T10:38:23.367Z,57.73
2022-10-06T10:41:09.861Z,55.88
2022-10-06T10:43:55.378Z,55.80
2022-10-06T10:46:44.714Z,56.29
2022-10-06T10:49:35.219Z,56.00
2022-10-06T10:52:20.929Z,56.33
2022-10-06T10:55:16.100Z,54.96
2022-10-06T10:57:46.008Z,54.53
2022-10-06T11:00:22.833Z,54.13
2022-10-06T11:02:55.368Z,53.55
2022-10-06T11:06:13.955Z,54.15
2022-10-06T11:09:09.966Z,53.11
2022-10-06T11:12:27.443Z,53.45
2022-10-06T11:15:06.424Z,52.48
2022-10-06T11:17:44.874Z,51.25
2022-10-06T11:20:56.714Z,51.35
2022-10-06T11:24:15.559Z,51.73
2022-10-06T11:27:01.199Z,52.19
2022-10-06T11:29:57.563Z,52.87
2022-10-06T11:32:48.375Z,52.99
2022-10-06T11:35:27.051Z,52.92
2022-10-06T11:38:12.223Z,52.37
2022-10-06T11:41:18.247Z,52.53
2022-10-06T11:44:19.620Z,51.16
2022-10-06T11:46:57.630Z,51.46
2022-10-06T11:49:31.699Z,51.52
2022-10-06T11:52:08.596Z,51.75
2022-10-06T11:54:39.804Z,51.71
2022-10-06T11:57:30.875Z,52.73
2022-10-06T12:00:04.211Z,52.59
2022-10-06T12:02:39.101Z,52.31
2022-10-06T12:05:36.322Z,52.44
2022-10-06T12:08:01.636Z,51.55
2022-10-06T12:10:28.652Z,51.09
2022-10-06T12:17:11.340Z,49.29
2022-10-06T12:19:51.745Z,49.86
2022-10-06T12:22:33.019Z,49.01
2022-10-06T12:25:14.584Z,49.58
2022-10-06T12:27:58.024Z,48.74
2022-10-06T12:30:44.300Z,47.57
2022-10-06T12:33:20.436Z,47.74
2022-10-06T12:35:48.057Z,48.66
2022-10-06T12:38:33.925Z,46.85
2022-10-06T12:41:01.734Z,47.67
2022-10-06T12:43:43.907Z,47.72
2022-10-06T12:46:22.790Z,48.13
2022-10-06T12:49:34.324Z,48.30
2022-10-06T12:52:33.531Z,47.44
2022-10-06T12:55:06.528Z,46.26
2022-10-06T12:57:53.279Z,47.21
2022-10-06T13:00:43.104Z,47.85
2022-10-06T13:03:25.012Z,48.21
2022-10-06T13:05:57.243Z,48.66
2022-10-06T13:08:31.277Z,48.57
2022-10-06T13:11:29.721Z,47.53
2022-10-06T13:14:14.124Z,46.27
2022-10-06T13:16:48.419Z,45.52
2022-10-06T13:19:26.821Z,46.78
2022-10-06T13:21:54.993Z,45.37
2022-10-06T13:24:26.764Z,45.70
2022-10-06T13:26:55.002Z,46.12
2022-10-06T13:29:27.293Z,46.07
2022-10-06T13:31:56.745Z,45.23
2022-10-06T13:34:43.266Z,45.67
2022-10-06T13:37:15.729Z,46.25
2022-10-06T13:39:42.943Z,45.74
2022-10-06T13:42:18.049Z,46.02
2022-10-06T13:44:59.076Z,45.28
2022-10-06T13:47:31.646Z,45.00
2022-10-06T13:50:05.950Z,45.20
2022-10-06T13:52:38.021Z,45.38
2022-10-06T13:55:29.575Z,46.25
2022-10-06T13:58:05.177Z,46.64
2022-10-06T14:00:48.655Z,46.21
2022-10-06T14:06:19.064Z,45.82
2022-10-06T14:08:57.934Z,45.95
2022-10-06T14:11:29.534Z,46.11
2022-10-06T14:14:02.249Z,45.84
2022-10-06T14:16:29.934Z,45.62
2022-10-06T14:19:00.410Z,45.90
2022-10-06T14:21:45.201Z,44.64
2022-10-06T14:24:15.157Z,44.57
2022-10-06T14:26:44.430Z,44.61
2022-10-06T14:29:16.913Z,44.98
2022-10-06T14:31:46.003Z,44.47
2022-10-06T14:34:16.426Z,44.20
2022-10-06T14:36:47.735Z,45.02
2022-10-06T14:39:16.062Z,43.77
2022-10-06T14:41:43.431Z,44.23
2022-10-06T14:44:12.162Z,43.77
2022-10-06T14:46:47.434Z,43.86
2022-10-06T14:49:15.845Z,43.50
2022-10-06T14:51:44.536Z,44.07
2022-10-06T14:54:12.596Z,43.76
2022-10-06T14:56:41.393Z,43.90
2022-10-06T14:59:14.453Z,42.97
2022-10-06T15:01:42.179Z,43.22
2022-10-06T15:04:16.119Z,43.81
2022-10-06T15:07:02.109Z,43.35
2022-10-06T15:09:31.033Z,43.82
2022-10-06T15:12:00.001Z,43.37
2022-10-06T15:14:29.160Z,42.92
2022-10-06T15:17:00.036Z,43.08
2022-10-06T15:19:27.335Z,42.89
2022-10-06T15:21:54.483Z,42.74
2022-10-06T15:24:21.550Z,42.37
2022-10-06T15:27:07.448Z,42.68
2022-10-06T15:29:35.179Z,42.71
2022-10-06T15:32:06.073Z,43.26
2022-10-06T15:34:34.640Z,43.76
2022-10-06T15:37:02.761Z,43.07
2022-10-06T15:39:37.644Z,43.12
2022-10-06T15:42:06.316Z,43.45
2022-10-06T15:44:37.150Z,43.69
2022-10-06T15:47:05.935Z,44.09
2022-10-06T15:49:38.004Z,44.63
2022-10-06T15:52:06.370Z,43.95
2022-10-06T15:54:37.713Z,44.80
2022-10-06T15:57:16.458Z,44.48
2022-10-06T15:59:45.151Z,44.83
2022-10-06T16:02:16.209Z,45.16
2022-10-06T16:04:55.924Z,45.47
2022-10-06T16:07:23.072Z,45.61
2022-10-06T16:09:51.812Z,45.84
2022-10-06T16:12:24.879Z,45.84
2022-10-06T16:14:52.090Z,46.55
2022-10-06T16:17:20.456Z,46.83
2022-10-06T16:19:47.552Z,46.97
2022-10-06T16:22:18.123Z,47.27
2022-10-06T16:24:45.369Z,47.67
2022-10-06T16:27:15.372Z,47.71
2022-10-06T16:29:42.484Z,47.81
2022-10-06T16:32:09.728Z,48.14
2022-10-06T16:34:41.273Z,48.57
2022-10-06T16:37:08.206Z,49.13
2022-10-06T16:39:35.454Z,49.18
2022-10-06T16:42:02.622Z,49.42
2022-10-06T16:44:31.967Z,49.69
2022-10-06T16:46:59.102Z,50.13
2022-10-06T16:49:28.154Z,50.38
2022-10-06T16:51:55.135Z,50.63
2022-10-06T16:54:23.722Z,50.76
2022-10-06T16:56:58.311Z,50.97
2022-10-06T16:59:29.439Z,51.62
2022-10-06T17:01:56.454Z,51.67
2022-10-06T17:04:25.521Z,51.87
2022-10-06T17:06:58.520Z,52.47
2022-10-06T17:09:28.386Z,52.48
2022-10-06T17:12:02.991Z,52.86
2022-10-06T17:14:33.346Z,53.12
2022-10-06T17:17:00.649Z,53.26
2022-10-06T17:19:29.991Z,53.78
2022-10-06T17:21:59.256Z,53.90
2022-10-06T17:24:29.102Z,54.01
2022-10-06T17:26:58.388Z,54.44
2022-10-06T17:29:26.612Z,55.05
2022-10-06T17:32:01.322Z,55.63
2022-10-06T17:34:32.257Z,56.02
2022-10-06T17:37:01.654Z,56.33
2022-10-06T17:39:28.919Z,56.79
2022-10-06T17:41:56.499Z,57.14
2022-10-06T17:44:27.001Z,57.72
2022-10-06T17:46:58.490Z,57.93
2022-10-06T17:49:28.045Z,58.18
2022-10-06T17:51:55.882Z,58.71
2022-10-06T17:54:25.268Z,59.20
2022-10-06T17:56:56.896Z,59.38
2022-10-06T17:59:31.184Z,59.98
2022-10-06T18:02:02.595Z,59.82
2022-10-06T18:04:30.720Z,60.78
2022-10-06T18:07:01.047Z,61.29
2022-10-06T18:09:28.206Z,61.45
2022-10-06T18:11:56.529Z,61.74
2022-10-06T18:14:34.650Z,62.33
2022-10-06T18:17:03.914Z,62.62
2022-10-06T18:19:34.945Z,62.84
2022-10-06T18:22:10.431Z,63.22
2022-10-06T18:24:40.595Z,63.68
2022-10-06T18:27:08.697Z,64.18
2022-10-06T18:29:38.900Z,64.42
2022-10-06T18:36:12.890Z,64.76
2022-10-06T18:37:41.762Z,65.10
2022-10-06T18:40:11.156Z,65.15
2022-10-06T18:42:39.465Z,65.48
2022-10-06T18:45:29.147Z,65.44
2022-10-06T18:48:15.152Z,65.61
2022-10-06T18:50:42.676Z,65.93
2022-10-06T18:53:13.669Z,66.35
2022-10-06T18:55:44.696Z,66.83
2022-10-06T18:58:15.546Z,67.37
2022-10-06T19:00:42.613Z,67.01
2022-10-06T19:03:15.483Z,67.33
2022-10-06T19:05:52.714Z,67.43
2022-10-06T19:08:20.860Z,67.51
2022-10-06T19:11:06.328Z,67.74
2022-10-06T19:13:33.542Z,67.95
2022-10-06T19:16:01.900Z,67.95
2022-10-06T19:18:38.023Z,67.91
2022-10-06T19:21:09.490Z,67.99
2022-10-06T19:23:38.981Z,68.17
2022-10-06T19:26:09.203Z,68.18
2022-10-06T19:28:37.554Z,68.46
2022-10-06T19:31:19.949Z,68.45
2022-10-06T19:33:48.218Z,68.44
2022-10-06T19:36:17.225Z,68.32
2022-10-06T19:38:45.518Z,68.18
2022-10-06T19:41:31.386Z,67.88
2022-10-06T19:43:58.451Z,67.83
2022-10-06T19:46:25.534Z,67.67
2022-10-06T19:48:56.755Z,67.75
2022-10-06T19:51:25.111Z,67.56
2022-10-06T19:53:52.274Z,67.62
2022-10-06T19:56:25.668Z,67.55
2022-10-06T19:58:53.110Z,67.49
2022-10-06T20:01:20.392Z,67.56
2022-10-06T20:03:47.587Z,67.69
2022-10-06T20:06:16.827Z,67.70
2022-10-06T20:08:44.046Z,67.69
2022-10-06T20:11:15.902Z,67.81
2022-10-06T20:13:44.880Z,67.90
2022-10-06T20:16:18.606Z,67.84
2022-10-06T20:18:48.870Z,67.72
2022-10-06T20:21:25.448Z,68.02
2022-10-06T20:23:56.387Z,68.07
2022-10-06T20:26:31.927Z,68.14
2022-10-06T20:29:06.378Z,68.30
2022-10-06T20:31:35.747Z,67.96
2022-10-06T20:34:06.658Z,68.16
2022-10-06T20:36:35.699Z,68.28
2022-10-06T20:39:23.950Z,68.25
2022-10-06T20:41:51.132Z,68.42
2022-10-06T20:44:18.141Z,68.51
2022-10-06T20:46:46.599Z,68.73
2022-10-06T20:49:18.098Z,68.70
2022-10-06T20:51:51.739Z,68.68
2022-10-06T20:54:26.475Z,69.01
2022-10-06T20:56:55.705Z,69.13
2022-10-06T20:59:24.855Z,69.22
2022-10-06T21:01:52.567Z,69.21
2022-10-06T21:04:21.184Z,69.40
2022-10-06T21:06:49.275Z,69.54
2022-10-06T21:09:19.483Z,69.55
2022-10-06T21:11:48.277Z,69.87
2022-10-06T21:14:16.090Z,69.66
2022-10-06T21:16:45.838Z,69.66
2022-10-06T21:19:16.719Z,69.93
2022-10-06T21:21:53.366Z,69.86
2022-10-06T21:24:21.001Z,70.09
2022-10-06T21:26:49.299Z,70.20
2022-10-06T21:29:16.605Z,70.35
2022-10-06T21:31:45.025Z,70.34
2022-10-06T21:34:16.572Z,70.22
2022-10-06T21:36:43.867Z,70.21
2022-10-06T21:39:13.107Z,70.44
2022-10-06T21:41:40.981Z,70.60
2022-10-06T21:44:17.338Z,70.56
2022-10-06T21:46:53.746Z,70.72
2022-10-06T21:49:24.144Z,70.71
2022-10-06T21:51:55.166Z,70.86
2022-10-06T21:54:24.004Z,70.84
2022-10-06T21:56:52.191Z,70.87
2022-10-06T21:59:19.433Z,70.83
2022-10-06T22:01:50.241Z,71.00
2022-10-06T22:04:19.789Z,71.10
2022-10-06T22:06:51.793Z,71.31
2022-10-06T22:09:20.617Z,71.73
2022-10-06T22:11:49.066Z,71.80
2022-10-06T22:14:18.838Z,71.71
2022-10-06T22:16:46.778Z,71.66
2022-10-06T22:19:16.273Z,71.76
2022-10-06T22:21:47.026Z,71.70
2022-10-06T22:24:18.682Z,71.97
2022-10-06T22:26:47.126Z,71.69
2022-10-06T22:29:18.368Z,71.82
2022-10-06T22:31:47.889Z,71.99
2022-10-06T22:34:20.548Z,72.02
2022-10-06T22:36:47.684Z,72.14
2022-10-06T22:39:14.925Z,72.08
2022-10-06T22:41:42.062Z,72.36
2022-10-06T22:44:09.167Z,72.46
2022-10-06T22:46:37.665Z,72.61
2022-10-06T22:49:05.648Z,72.62
2022-10-06T22:51:33.746Z,72.85
2022-10-06T22:54:01.561Z,72.71
2022-10-06T22:56:32.365Z,72.79
2022-10-06T22:59:00.134Z,72.93
2022-10-06T23:01:29.215Z,72.81
2022-10-06T23:03:56.875Z,72.93
2022-10-06T23:06:24.653Z,73.04
2022-10-06T23:08:52.750Z,72.88
2022-10-06T23:11:22.278Z,73.17
2022-10-06T23:13:50.481Z,73.26
2022-10-06T23:16:19.441Z,73.25
2022-10-06T23:18:48.157Z,73.52
2022-10-06T23:21:22.746Z,73.42
2022-10-06T23:23:56.610Z,73.75
2022-10-06T23:26:27.927Z,73.72
2022-10-06T23:28:59.505Z,73.84
2022-10-06T23:31:31.766Z,73.97
2022-10-06T23:33:58.948Z,73.84
2022-10-06T23:36:26.108Z,74.00
2022-10-06T23:38:53.177Z,74.10
2022-10-06T23:41:20.678Z,74.32
2022-10-06T23:43:47.769Z,74.32
2022-10-06T23:46:15.208Z,74.32
2022-10-06T23:48:43.265Z,74.46
2022-10-06T23:51:15.313Z,74.63
2022-10-06T23:53:43.212Z,74.57
2022-10-06T23:56:11.465Z,74.49
2022-10-06T23:58:40.055Z,74.57
